Search for airport 
image banner adimage banner adimage banner ad
image banner ad

CN90 - Api Gateway

Located in Calexico, United States

ICAO - CN90, IATA -

Data provided by Airmate  

General information

Coordinates: N32°40'33" W115°22'19"
Elevation is 34 feet MSL.
Magnetic variation is 11° East
View others Airports in California

Operational data

Special qualification required
Current time UTC:
Current local time:
METAR: MMML 221311Z RTD 09006KT 10SM SCT120 SCT200 26/19 A2977 RMK 8/098 HZY RTS
TAF: TAF MMML 220521Z 2206/2306 14005KT P6SM SKC FM221800 14010KT P6SM SKC FM230300 16005KT P6SM SKC
View NOTAMs / SUP AIP / TFR affecting this airport [VIEW]
Communications frequencies: [VIEW]

Runways:

Airport contact information

Address: Calexico United States

Satellite view of CN90